createdAt,value
2023-03-12T00:01:53.253Z,100001.06
2023-03-12T00:04:55.927Z,100017.88
2023-03-12T00:08:00.151Z,100015.75
2023-03-12T00:11:06.653Z,100021.66
2023-03-12T00:14:08.512Z,100023.97
2023-03-12T00:17:11.617Z,100021.44
2023-03-12T00:20:14.568Z,100028.81
2023-03-12T00:23:17.257Z,100019.28
2023-03-12T00:26:20.543Z,100039.78
2023-03-12T00:29:22.550Z,100043.13
2023-03-12T00:32:25.065Z,100050.63
2023-03-12T00:35:27.091Z,100058.13
2023-03-12T00:38:29.418Z,100062.72
2023-03-12T00:41:32.194Z,100070.47
2023-03-12T00:44:35.465Z,100067.97
2023-03-12T00:47:37.420Z,100073.16
2023-03-12T00:50:39.556Z,100074.88
2023-03-12T00:53:41.482Z,100071.41
2023-03-12T00:56:43.674Z,100072.50
2023-03-12T00:59:45.833Z,100061.00
2023-03-12T01:02:50.631Z,100079.63
2023-03-12T01:05:57.447Z,100078.41
2023-03-12T01:09:02.104Z,100081.69
2023-03-12T01:12:04.376Z,100081.56
2023-03-12T01:15:08.602Z,100083.56
2023-03-12T01:18:10.865Z,100085.59
2023-03-12T01:21:13.591Z,100087.59
2023-03-12T01:24:16.043Z,100086.19
2023-03-12T01:27:18.861Z,100084.81
2023-03-12T01:30:24.783Z,100080.53
2023-03-12T01:33:27.136Z,100098.63
2023-03-12T01:36:31.322Z,100087.59
2023-03-12T01:39:33.496Z,100104.28
2023-03-12T01:42:35.358Z,100100.56
2023-03-12T01:46:03.743Z,100108.41
2023-03-12T01:49:20.038Z,100103.03
2023-03-12T01:52:31.223Z,100100.09
2023-03-12T01:55:33.350Z,100102.13
2023-03-12T01:58:40.423Z,100119.94
2023-03-12T02:01:45.122Z,100126.97
2023-03-12T02:04:47.852Z,100127.13
2023-03-12T02:07:51.272Z,100125.72
2023-03-12T02:10:53.475Z,100131.59
2023-03-12T02:13:55.622Z,100139.06
2023-03-12T02:16:58.030Z,100140.03
2023-03-12T02:20:25.930Z,100149.56
2023-03-12T02:23:35.759Z,100135.69
2023-03-12T02:26:40.091Z,100139.22
2023-03-12T02:29:44.731Z,100145.59
2023-03-12T02:32:50.633Z,100149.19
2023-03-12T02:35:56.886Z,100160.84
2023-03-12T02:39:00.520Z,100174.44
2023-03-12T02:42:02.905Z,100166.22
2023-03-12T02:45:08.080Z,100171.97
2023-03-12T02:48:11.105Z,100173.28
2023-03-12T02:51:13.344Z,100187.47
2023-03-12T02:54:17.733Z,100188.06
2023-03-12T02:57:22.534Z,100185.13
2023-03-12T03:00:25.405Z,100182.41
2023-03-12T03:03:28.101Z,100187.00
2023-03-12T03:06:31.067Z,100190.53
2023-03-12T03:09:33.099Z,100199.91
2023-03-12T03:12:36.478Z,100212.72
2023-03-12T03:15:39.479Z,100213.44
2023-03-12T03:18:41.600Z,100208.69
2023-03-12T03:21:43.975Z,100218.81
2023-03-12T03:24:46.107Z,100224.75
2023-03-12T03:27:48.072Z,100235.34
2023-03-12T03:30:58.212Z,100241.22
2023-03-12T03:34:00.866Z,100242.34
2023-03-12T03:37:02.890Z,100244.06
2023-03-12T03:40:06.755Z,100260.75
2023-03-12T03:43:11.346Z,100245.66
2023-03-12T03:46:16.669Z,100252.94
2023-03-12T03:49:18.583Z,100255.63
2023-03-12T03:52:20.537Z,100259.81
2023-03-12T03:55:22.845Z,100256.28
2023-03-12T03:58:27.306Z,100249.16
2023-03-12T04:01:31.524Z,100253.69
2023-03-12T04:04:33.597Z,100264.91
2023-03-12T04:07:35.480Z,100265.97
2023-03-12T04:10:37.789Z,100271.97
2023-03-12T04:13:39.907Z,100262.94
2023-03-12T04:16:42.184Z,100255.72
2023-03-12T04:19:44.219Z,100285.28
2023-03-12T04:22:47.302Z,100290.19
2023-03-12T04:25:49.786Z,100293.13
2023-03-12T04:28:53.438Z,100279.50
2023-03-12T04:31:56.824Z,100304.84
2023-03-12T04:34:59.621Z,100335.25
2023-03-12T04:38:02.466Z,100341.97
2023-03-12T04:41:14.663Z,100344.25
2023-03-12T04:44:16.800Z,100327.41
2023-03-12T04:47:20.513Z,100339.84
2023-03-12T04:50:23.575Z,100347.75
2023-03-12T04:53:25.949Z,100340.16
2023-03-12T04:56:28.700Z,100341.84
2023-03-12T04:59:31.102Z,100347.16
2023-03-12T05:02:33.932Z,100353.59
2023-03-12T05:05:36.041Z,100366.88
2023-03-12T05:08:38.139Z,100364.25
2023-03-12T05:11:41.621Z,100366.53
2023-03-12T05:14:43.792Z,100370.88
2023-03-12T05:17:49.139Z,100365.84
2023-03-12T05:21:02.822Z,100366.41
2023-03-12T05:24:05.620Z,100381.56
2023-03-12T05:27:08.559Z,100386.00
2023-03-12T05:30:14.007Z,100393.63
2023-03-12T05:33:16.178Z,100395.75
2023-03-12T05:36:19.213Z,100406.00
2023-03-12T05:39:22.714Z,100398.00
2023-03-12T05:42:26.011Z,100410.31
2023-03-12T05:45:28.005Z,100406.72
2023-03-12T05:48:33.164Z,100417.00
2023-03-12T05:51:35.610Z,100407.53
2023-03-12T05:54:37.816Z,100428.94
2023-03-12T05:57:42.145Z,100439.56
2023-03-12T06:00:45.145Z,100437.81
2023-03-12T06:03:47.816Z,100442.78
2023-03-12T06:06:50.034Z,100453.00
2023-03-12T06:10:00.620Z,100451.00
2023-03-12T06:13:03.238Z,100455.59
2023-03-12T06:16:12.810Z,100472.06
2023-03-12T06:19:15.776Z,100480.13
2023-03-12T06:22:17.670Z,100484.84
2023-03-12T06:25:19.623Z,100484.44
2023-03-12T06:28:21.732Z,100472.69
2023-03-12T06:31:24.818Z,100489.75
2023-03-12T06:34:27.052Z,100500.19
2023-03-12T06:37:29.172Z,100497.22
2023-03-12T06:40:31.574Z,100507.50
2023-03-12T06:43:35.813Z,100511.25
2023-03-12T06:46:38.750Z,100521.19
2023-03-12T06:49:41.158Z,100511.69
2023-03-12T06:52:43.467Z,100521.72
2023-03-12T06:55:46.542Z,100520.97
2023-03-12T06:58:50.276Z,100514.16
2023-03-12T07:01:52.787Z,100510.59
2023-03-12T07:04:55.085Z,100524.75
2023-03-12T07:08:00.431Z,100512.66
2023-03-12T07:11:02.841Z,100523.00
2023-03-12T07:14:05.018Z,100542.50
2023-03-12T07:17:07.294Z,100554.38
2023-03-12T07:20:10.025Z,100554.47
2023-03-12T07:23:12.689Z,100548.94
2023-03-12T07:26:14.862Z,100560.56
2023-03-12T07:29:16.891Z,100560.25
2023-03-12T07:32:19.280Z,100558.94
2023-03-12T07:35:22.600Z,100565.75
2023-03-12T07:38:25.050Z,100568.47
2023-03-12T07:41:27.205Z,100578.81
2023-03-12T07:44:29.644Z,100574.63
2023-03-12T07:47:31.689Z,100571.22
2023-03-12T07:50:36.777Z,100578.38
2023-03-12T07:53:41.002Z,100575.69
2023-03-12T07:56:44.732Z,100556.06
2023-03-12T07:59:48.233Z,100569.38
2023-03-12T08:02:50.674Z,100579.47
2023-03-12T08:05:58.719Z,100576.69
2023-03-12T08:09:00.957Z,100575.41
2023-03-12T08:12:03.108Z,100578.09
2023-03-12T08:15:12.752Z,100583.63
2023-03-12T08:18:14.814Z,100582.47
2023-03-12T08:21:18.301Z,100585.28
2023-03-12T08:24:21.889Z,100584.22
2023-03-12T08:27:25.067Z,100580.69
2023-03-12T08:30:30.283Z,100587.03
2023-03-12T08:33:34.178Z,100599.53
2023-03-12T08:36:37.462Z,100598.81
2023-03-12T08:39:39.514Z,100603.06
2023-03-12T08:42:43.839Z,100605.31
2023-03-12T08:45:47.570Z,100600.72
2023-03-12T08:48:49.741Z,100602.47
2023-03-12T08:51:52.118Z,100596.59
2023-03-12T08:54:54.270Z,100599.06
2023-03-12T08:57:57.603Z,100602.56
2023-03-12T09:00:59.688Z,100602.44
2023-03-12T09:04:03.813Z,100599.63
2023-03-12T09:07:06.276Z,100600.91
2023-03-12T09:10:09.545Z,100587.47
2023-03-12T09:13:12.541Z,100589.69
2023-03-12T09:16:15.418Z,100597.25
2023-03-12T09:19:17.497Z,100591.03
2023-03-12T09:22:19.512Z,100596.28
2023-03-12T09:25:25.875Z,100598.75
2023-03-12T09:28:29.017Z,100596.97
2023-03-12T09:31:31.676Z,100584.31
2023-03-12T09:34:35.896Z,100581.88
2023-03-12T09:37:37.951Z,100592.44
2023-03-12T09:40:43.405Z,100593.19
2023-03-12T09:43:54.555Z,100592.94
2023-03-12T09:47:01.598Z,100600.22
2023-03-12T09:50:19.594Z,100583.69
2023-03-12T09:53:41.437Z,100589.41
2023-03-12T09:56:46.324Z,100591.75
2023-03-12T09:59:48.492Z,100584.78
2023-03-12T10:03:09.700Z,100583.25
2023-03-12T10:06:20.613Z,100583.72
2023-03-12T10:09:39.251Z,100587.34
2023-03-12T10:13:16.299Z,100585.19
2023-03-12T10:16:30.205Z,100578.22
2023-03-12T10:19:38.422Z,100579.22
2023-03-12T10:22:54.415Z,100587.34
2023-03-12T10:25:56.198Z,100591.75
2023-03-12T10:29:10.266Z,100589.16
2023-03-12T10:32:19.741Z,100582.88
2023-03-12T10:35:27.645Z,100577.31
2023-03-12T10:38:32.149Z,100585.06
2023-03-12T10:41:35.104Z,100585.06
2023-03-12T10:44:37.281Z,100594.28
2023-03-12T10:47:52.662Z,100591.97
2023-03-12T10:51:11.365Z,100588.41
2023-03-12T10:54:34.182Z,100595.94
2023-03-12T10:58:16.851Z,100599.00
2023-03-12T11:01:26.246Z,100600.66
2023-03-12T11:04:32.708Z,100598.78
2023-03-12T11:07:35.656Z,100596.66
2023-03-12T11:10:47.887Z,100597.06
2023-03-12T11:14:07.064Z,100586.00
2023-03-12T11:17:24.883Z,100590.75
2023-03-12T11:20:28.568Z,100582.63
2023-03-12T11:23:31.929Z,100576.44
2023-03-12T11:26:51.271Z,100583.72
2023-03-12T11:29:54.844Z,100586.81
2023-03-12T11:32:58.480Z,100581.84
2023-03-12T11:36:24.427Z,100585.19
2023-03-12T11:39:57.645Z,100581.25
2023-03-12T11:43:42.032Z,100577.75
2023-03-12T11:47:11.960Z,100585.63
2023-03-12T11:50:37.127Z,100585.47
2023-03-12T11:54:20.207Z,100576.38
2023-03-12T11:57:41.958Z,100570.03
2023-03-12T12:01:20.947Z,100577.81
2023-03-12T12:04:44.607Z,100566.56
2023-03-12T12:07:47.472Z,100569.38
2023-03-12T12:11:11.527Z,100567.78
2023-03-12T12:14:41.109Z,100553.00
2023-03-12T12:17:57.168Z,100559.34
2023-03-12T12:21:23.263Z,100561.84
2023-03-12T12:24:34.523Z,100556.22
2023-03-12T12:27:55.955Z,100539.53
2023-03-12T12:31:33.954Z,100538.34
2023-03-12T12:34:45.661Z,100542.91
2023-03-12T12:38:03.001Z,100551.28
2023-03-12T12:41:08.112Z,100545.38
2023-03-12T12:44:18.728Z,100537.25
2023-03-12T12:47:32.796Z,100539.41
2023-03-12T12:50:42.585Z,100542.25
2023-03-12T12:54:23.422Z,100552.22
2023-03-12T12:57:41.682Z,100553.47
2023-03-12T13:00:55.629Z,100548.91
2023-03-12T13:04:15.034Z,100545.72
2023-03-12T13:07:34.377Z,100526.25
2023-03-12T13:10:48.683Z,100547.97
2023-03-12T13:14:02.920Z,100554.22
2023-03-12T13:17:27.490Z,100553.72
2023-03-12T13:20:42.150Z,100553.66
2023-03-12T13:23:52.060Z,100555.19
2023-03-12T13:27:12.389Z,100546.75
2023-03-12T13:30:33.642Z,100548.84
2023-03-12T13:33:54.245Z,100554.28
2023-03-12T13:37:01.915Z,100555.47
2023-03-12T13:40:29.740Z,100560.59
2023-03-12T13:43:38.204Z,100567.16
2023-03-12T13:46:42.469Z,100570.06
2023-03-12T13:50:00.697Z,100564.53
2023-03-12T13:53:23.672Z,100552.00
2023-03-12T13:56:32.772Z,100561.81
2023-03-12T13:59:34.818Z,100559.53
2023-03-12T14:02:45.820Z,100562.53
2023-03-12T14:05:53.975Z,100559.16
2023-03-12T14:09:05.691Z,100575.34
2023-03-12T14:12:33.610Z,100561.38
2023-03-12T14:15:57.662Z,100564.00
2023-03-12T14:19:03.876Z,100566.41
2023-03-12T14:22:08.751Z,100566.19
2023-03-12T14:25:38.985Z,100575.19
2023-03-12T14:28:42.289Z,100573.63
2023-03-12T14:31:45.599Z,100575.56
2023-03-12T14:35:09.803Z,100568.19
2023-03-12T14:38:32.271Z,100570.78
2023-03-12T14:41:43.204Z,100576.31
2023-03-12T14:44:55.354Z,100573.53
2023-03-12T14:47:59.146Z,100573.78
2023-03-12T14:51:02.568Z,100557.81
2023-03-12T14:54:05.135Z,100572.72
2023-03-12T14:57:15.601Z,100567.59
2023-03-12T15:00:25.367Z,100565.50
2023-03-12T15:03:30.749Z,100562.53
2023-03-12T15:06:37.485Z,100570.88
2023-03-12T15:09:43.500Z,100570.00
2023-03-12T15:12:46.910Z,100559.16
2023-03-12T15:15:52.378Z,100572.25
2023-03-12T15:18:55.083Z,100577.88
2023-03-12T15:21:57.534Z,100586.13
2023-03-12T15:25:14.846Z,100571.84
2023-03-12T15:28:18.728Z,100586.97
2023-03-12T15:31:21.080Z,100586.75
2023-03-12T15:34:36.042Z,100591.00
2023-03-12T15:37:43.256Z,100590.91
2023-03-12T15:40:51.502Z,100590.50
2023-03-12T15:43:57.693Z,100591.81
2023-03-12T15:47:14.968Z,100600.31
2023-03-12T15:50:25.388Z,100599.75
2023-03-12T15:53:33.608Z,100607.19
2023-03-12T15:56:37.010Z,100601.97
2023-03-12T15:59:41.273Z,100611.63
2023-03-12T16:02:53.494Z,100621.53
2023-03-12T16:05:57.381Z,100611.56
2023-03-12T16:09:03.743Z,100608.44
2023-03-12T16:12:06.289Z,100612.19
2023-03-12T16:15:14.296Z,100615.44
2023-03-12T16:18:19.800Z,100622.75
2023-03-12T16:21:21.706Z,100628.34
2023-03-12T16:24:23.920Z,100628.09
2023-03-12T16:27:32.574Z,100627.28
2023-03-12T16:30:36.897Z,100632.22
2023-03-12T16:33:39.747Z,100632.72
2023-03-12T16:36:42.558Z,100633.75
2023-03-12T16:39:48.347Z,100636.66
2023-03-12T16:42:54.074Z,100639.81
2023-03-12T16:45:58.031Z,100639.00
2023-03-12T16:49:01.064Z,100648.19
2023-03-12T16:52:13.477Z,100650.81
2023-03-12T16:55:16.236Z,100656.81
2023-03-12T16:58:21.148Z,100644.22
2023-03-12T17:01:26.825Z,100663.41
2023-03-12T17:04:29.032Z,100666.53
2023-03-12T17:07:31.218Z,100672.59
2023-03-12T17:10:34.784Z,100678.91
2023-03-12T17:13:37.104Z,100677.94
2023-03-12T17:16:40.887Z,100681.25
2023-03-12T17:19:43.505Z,100694.00
2023-03-12T17:22:46.266Z,100684.66
2023-03-12T17:25:49.104Z,100686.28
2023-03-12T17:28:53.646Z,100682.47
2023-03-12T17:31:57.000Z,100668.63
2023-03-12T17:35:06.732Z,100681.25
2023-03-12T17:38:11.873Z,100684.66
2023-03-12T17:44:34.793Z,100686.56
2023-03-12T17:47:38.560Z,100687.38
2023-03-12T17:50:45.074Z,100679.56
2023-03-12T17:53:47.925Z,100679.31
2023-03-12T17:56:50.101Z,100679.44
2023-03-12T17:59:52.967Z,100680.91
2023-03-12T18:02:56.023Z,100674.34
2023-03-12T18:05:58.335Z,100672.28
2023-03-12T18:09:00.544Z,100677.22
2023-03-12T18:12:02.853Z,100673.53
2023-03-12T18:15:06.477Z,100684.00
2023-03-12T18:18:08.904Z,100683.47
2023-03-12T18:21:11.264Z,100682.06
2023-03-12T18:24:14.769Z,100673.41
2023-03-12T18:27:17.405Z,100687.47
2023-03-12T18:30:21.781Z,100703.53
2023-03-12T18:33:23.961Z,100685.72
2023-03-12T18:36:26.305Z,100708.06
2023-03-12T18:39:28.991Z,100708.44
2023-03-12T18:42:31.759Z,100713.34
2023-03-12T18:45:34.744Z,100708.03
2023-03-12T18:48:38.221Z,100704.94
2023-03-12T18:51:40.387Z,100716.06
2023-03-12T18:54:42.395Z,100724.25
2023-03-12T18:57:48.078Z,100714.50
2023-03-12T19:00:52.795Z,100710.59
2023-03-12T19:03:56.604Z,100712.50
2023-03-12T19:07:11.714Z,100708.66
2023-03-12T19:10:21.658Z,100708.66
2023-03-12T19:13:24.515Z,100711.94
2023-03-12T19:16:29.020Z,100704.78
2023-03-12T19:19:31.627Z,100712.31
2023-03-12T19:22:34.320Z,100709.78
2023-03-12T19:25:37.240Z,100706.66
2023-03-12T19:28:42.349Z,100721.28
2023-03-12T19:31:44.971Z,100717.03
2023-03-12T19:34:52.327Z,100725.28
2023-03-12T19:37:58.699Z,100730.94
2023-03-12T19:41:03.781Z,100720.47
2023-03-12T19:44:07.102Z,100747.59
2023-03-12T19:47:11.027Z,100757.09
2023-03-12T19:50:13.679Z,100763.81
2023-03-12T19:53:17.861Z,100758.66
2023-03-12T19:56:22.216Z,100768.38
2023-03-12T19:59:24.919Z,100743.97
2023-03-12T20:02:27.675Z,100756.13
2023-03-12T20:05:30.877Z,100749.63
2023-03-12T20:08:32.969Z,100755.13
2023-03-12T20:11:38.109Z,100751.50
2023-03-12T20:14:42.637Z,100756.31
2023-03-12T20:17:48.347Z,100757.28
2023-03-12T20:20:50.542Z,100761.13
2023-03-12T20:23:58.578Z,100755.28
2023-03-12T20:27:02.471Z,100749.84
2023-03-12T20:30:05.651Z,100756.97
2023-03-12T20:33:09.558Z,100760.59
2023-03-12T20:36:14.242Z,100773.94
2023-03-12T20:39:18.076Z,100778.03
2023-03-12T20:42:20.833Z,100754.06
2023-03-12T20:45:23.215Z,100735.22
2023-03-12T20:48:26.624Z,100727.22
2023-03-12T20:51:29.137Z,100728.28
2023-03-12T20:54:35.091Z,100762.34
2023-03-12T20:57:37.629Z,100764.94
2023-03-12T21:00:44.329Z,100774.72
2023-03-12T21:03:47.296Z,100775.91
2023-03-12T21:06:51.871Z,100781.59
2023-03-12T21:09:54.378Z,100775.19
2023-03-12T21:12:58.016Z,100788.63
2023-03-12T21:16:00.934Z,100777.28
2023-03-12T21:19:04.628Z,100789.34
2023-03-12T21:22:07.390Z,100783.91
2023-03-12T21:25:11.640Z,100781.09
2023-03-12T21:28:17.315Z,100775.06
2023-03-12T21:31:19.909Z,100770.94
2023-03-12T21:34:22.957Z,100762.94
2023-03-12T21:37:28.649Z,100767.59
2023-03-12T21:40:31.031Z,100758.34
2023-03-12T21:43:33.483Z,100767.13
2023-03-12T21:46:35.708Z,100763.34
2023-03-12T21:49:38.030Z,100768.97
2023-03-12T21:52:43.560Z,100762.72
2023-03-12T21:55:55.278Z,100769.88
2023-03-12T21:58:58.509Z,100762.34
2023-03-12T22:02:00.605Z,100765.66
2023-03-12T22:05:04.093Z,100764.00
2023-03-12T22:08:07.595Z,100757.78
2023-03-12T22:11:11.171Z,100754.88
2023-03-12T22:14:13.058Z,100755.25
2023-03-12T22:17:15.265Z,100755.22
2023-03-12T22:20:17.529Z,100754.88
2023-03-12T22:23:21.455Z,100767.44
2023-03-12T22:26:25.256Z,100753.44
2023-03-12T22:29:27.789Z,100748.72
2023-03-12T22:32:30.517Z,100737.16
2023-03-12T22:35:32.502Z,100753.81
2023-03-12T22:38:36.729Z,100752.41
2023-03-12T22:41:40.068Z,100750.53
2023-03-12T22:44:42.976Z,100755.22
2023-03-12T22:47:47.050Z,100758.41
2023-03-12T22:50:54.179Z,100753.34
2023-03-12T22:53:57.235Z,100761.44
2023-03-12T22:56:59.574Z,100761.84
2023-03-12T23:00:02.451Z,100768.88
2023-03-12T23:03:05.146Z,100767.09
2023-03-12T23:06:14.004Z,100776.41
2023-03-12T23:09:16.284Z,100782.75
2023-03-12T23:12:19.048Z,100783.28
2023-03-12T23:15:24.515Z,100793.78
2023-03-12T23:18:31.645Z,100801.63
2023-03-12T23:21:33.786Z,100818.81
2023-03-12T23:24:37.466Z,100814.88
2023-03-12T23:27:39.424Z,100829.38
2023-03-12T23:30:41.454Z,100820.28
2023-03-12T23:33:44.001Z,100807.00
2023-03-12T23:36:46.361Z,100815.72
2023-03-12T23:39:54.499Z,100815.63
2023-03-12T23:42:58.500Z,100827.13
2023-03-12T23:46:03.505Z,100816.88
2023-03-12T23:49:07.510Z,100828.34
2023-03-12T23:52:09.819Z,100821.00
2023-03-12T23:55:14.075Z,100824.88
2023-03-12T23:58:16.172Z,100824.38
